sensor_id;sensor_type;location;lat;lon;timestamp;pressure;altitude;pressure_sealevel;temperature;humidity
61500;BME280;47361;49.996;19.918;2023-04-22T00:00:45;98665.37;;;5.9;70
61500;BME280;47361;49.996;19.918;2023-04-22T00:02:44;98670.68000000001;;;6.0;69
61500;BME280;47361;49.996;19.918;2023-04-22T00:08:44;98666.65000000001;;;5.9;69
61500;BME280;47361;49.996;19.918;2023-04-22T00:09:44;98665.86;;;5.8;69
61500;BME280;47361;49.996;19.918;2023-04-22T00:11:44;98664.92;;;5.7;69
61500;BME280;47361;49.996;19.918;2023-04-22T00:13:44;98666.8;;;5.6;70
61500;BME280;47361;49.996;19.918;2023-04-22T00:14:44;98671.39;;;5.5;70
61500;BME280;47361;49.996;19.918;2023-04-22T00:15:44;98668.26999999999;;;5.6;70
61500;BME280;47361;49.996;19.918;2023-04-22T00:18:44;98664.93000000001;;;5.7;70
61500;BME280;47361;49.996;19.918;2023-04-22T00:22:44;98670.61;;;5.6;70
61500;BME280;47361;49.996;19.918;2023-04-22T00:24:44;98658.14;;;5.5;70
61500;BME280;47361;49.996;19.918;2023-04-22T00:26:44;98656.3;;;5.6;70
61500;BME280;47361;49.996;19.918;2023-04-22T00:27:44;98655.78;;;5.5;70
61500;BME280;47361;49.996;19.918;2023-04-22T00:30:44;98660.19;;;5.6;71
61500;BME280;47361;49.996;19.918;2023-04-22T00:31:44;98661.55;;;5.7;70
61500;BME280;47361;49.996;19.918;2023-04-22T00:37:44;98658.36;;;5.6;70
61500;BME280;47361;49.996;19.918;2023-04-22T00:38:47;98654.36;;;5.5;70
61500;BME280;47361;49.996;19.918;2023-04-22T00:44:45;98654.94;;;5.6;70
61500;BME280;47361;49.996;19.918;2023-04-22T00:46:44;98658.98999999999;;;5.7;70
61500;BME280;47361;49.996;19.918;2023-04-22T00:48:44;98658.31;;;5.8;70
61500;BME280;47361;49.996;19.918;2023-04-22T00:51:44;98655.98;;;5.7;69
61500;BME280;47361;49.996;19.918;2023-04-22T00:52:44;98657.56;;;5.6;69
61500;BME280;47361;49.996;19.918;2023-04-22T00:54:44;98657.04;;;5.5;70
61500;BME280;47361;49.996;19.918;2023-04-22T00:55:44;98659.0;;;5.4;70
61500;BME280;47361;49.996;19.918;2023-04-22T00:59:44;98658.17;;;5.3;70
61500;BME280;47361;49.996;19.918;2023-04-22T01:00:44;98660.51999999999;;;5.4;70
61500;BME280;47361;49.996;19.918;2023-04-22T01:01:44;98659.86;;;5.3;70
61500;BME280;47361;49.996;19.918;2023-04-22T01:03:45;98658.29;;;5.2;70
61500;BME280;47361;49.996;19.918;2023-04-22T01:05:45;98663.59;;;5.3;70
61500;BME280;47361;49.996;19.918;2023-04-22T01:09:44;98656.2;;;5.2;70
61500;BME280;47361;49.996;19.918;2023-04-22T01:12:44;98657.47;;;5.1;71
61500;BME280;47361;49.996;19.918;2023-04-22T01:14:44;98658.76;;;5.0;71
61500;BME280;47361;49.996;19.918;2023-04-22T01:18:44;98660.97;;;4.9;72
61500;BME280;47361;49.996;19.918;2023-04-22T01:25:44;98661.0;;;5.0;71
61500;BME280;47361;49.996;19.918;2023-04-22T01:28:44;98660.92;;;4.9;71
61500;BME280;47361;49.996;19.918;2023-04-22T01:31:44;98663.89;;;5.0;72
61500;BME280;47361;49.996;19.918;2023-04-22T01:39:44;98668.02;;;4.9;72
61500;BME280;47361;49.996;19.918;2023-04-22T01:40:44;98663.58;;;5.0;72
61500;BME280;47361;49.996;19.918;2023-04-22T01:41:44;98666.09;;;5.1;72
61500;BME280;47361;49.996;19.918;2023-04-22T01:44:44;98667.67;;;5.2;71
61500;BME280;47361;49.996;19.918;2023-04-22T01:55:44;98664.39;;;5.3;71
61500;BME280;47361;49.996;19.918;2023-04-22T02:00:44;98665.78;;;5.4;70
61500;BME280;47361;49.996;19.918;2023-04-22T02:03:44;98665.26;;;5.3;70
61500;BME280;47361;49.996;19.918;2023-04-22T02:05:44;98662.48000000001;;;5.2;69
61500;BME280;47361;49.996;19.918;2023-04-22T02:07:44;98663.11;;;5.1;70
61500;BME280;47361;49.996;19.918;2023-04-22T02:08:44;98661.72;;;5.0;70
61500;BME280;47361;49.996;19.918;2023-04-22T02:09:44;98658.67;;;4.9;70
61500;BME280;47361;49.996;19.918;2023-04-22T02:11:44;98657.53;;;4.8;71
61500;BME280;47361;49.996;19.918;2023-04-22T02:12:44;98663.14;;;4.7;71
61500;BME280;47361;49.996;19.918;2023-04-22T02:13:44;98657.64;;;4.6;71
61500;BME280;47361;49.996;19.918;2023-04-22T02:16:44;98656.04;;;4.5;72
61500;BME280;47361;49.996;19.918;2023-04-22T02:18:44;98656.42;;;4.4;72
61500;BME280;47361;49.996;19.918;2023-04-22T02:23:44;98654.44;;;4.3;73
61500;BME280;47361;49.996;19.918;2023-04-22T02:25:47;98651.70000000001;;;4.4;73
61500;BME280;47361;49.996;19.918;2023-04-22T02:27:44;98652.44;;;4.5;73
61500;BME280;47361;49.996;19.918;2023-04-22T02:29:44;98651.39;;;4.6;73
61500;BME280;47361;49.996;19.918;2023-04-22T02:30:44;98653.51000000001;;;4.7;72
61500;BME280;47361;49.996;19.918;2023-04-22T02:33:44;98647.82;;;4.6;71
61500;BME280;47361;49.996;19.918;2023-04-22T02:36:44;98648.87999999999;;;4.5;72
61500;BME280;47361;49.996;19.918;2023-04-22T02:37:44;98650.36;;;4.4;72
61500;BME280;47361;49.996;19.918;2023-04-22T02:38:44;98647.52;;;4.3;72
61500;BME280;47361;49.996;19.918;2023-04-22T02:39:44;98649.8;;;4.2;73
61500;BME280;47361;49.996;19.918;2023-04-22T02:45:44;98645.47;;;4.3;73
61500;BME280;47361;49.996;19.918;2023-04-22T02:46:44;98645.63;;;4.4;73
61500;BME280;47361;49.996;19.918;2023-04-22T02:53:44;98652.25;;;4.3;73
61500;BME280;47361;49.996;19.918;2023-04-22T02:57:44;98652.82999999999;;;4.2;73
61500;BME280;47361;49.996;19.918;2023-04-22T03:00:44;98651.29;;;4.3;73
61500;BME280;47361;49.996;19.918;2023-04-22T03:01:44;98661.53;;;4.2;73
61500;BME280;47361;49.996;19.918;2023-04-22T03:07:44;98654.53;;;4.1;73
61500;BME280;47361;49.996;19.918;2023-04-22T03:08:44;98656.6;;;4.2;73
61500;BME280;47361;49.996;19.918;2023-04-22T03:14:44;98656.06;;;4.3;73
61500;BME280;47361;49.996;19.918;2023-04-22T03:22:44;98664.92;;;4.2;73
61500;BME280;47361;49.996;19.918;2023-04-22T03:25:44;98663.42;;;4.3;73
61500;BME280;47361;49.996;19.918;2023-04-22T03:27:44;98663.26000000001;;;4.2;73
61500;BME280;47361;49.996;19.918;2023-04-22T03:29:44;98665.05;;;4.1;73
61500;BME280;47361;49.996;19.918;2023-04-22T03:32:44;98663.83;;;4.0;73
61500;BME280;47361;49.996;19.918;2023-04-22T03:34:44;98661.28;;;3.9;74
61500;BME280;47361;49.996;19.918;2023-04-22T03:37:44;98667.47;;;3.8;74
61500;BME280;47361;49.996;19.918;2023-04-22T03:40:44;98667.67;;;3.9;74
61500;BME280;47361;49.996;19.918;2023-04-22T03:41:44;98665.81;;;3.8;74
61500;BME280;47361;49.996;19.918;2023-04-22T03:44:44;98664.76;;;3.9;74
61500;BME280;47361;49.996;19.918;2023-04-22T03:45:45;98666.13;;;4.0;74
61500;BME280;47361;49.996;19.918;2023-04-22T03:48:44;98667.86;;;4.1;74
61500;BME280;47361;49.996;19.918;2023-04-22T03:49:44;98666.35;;;4.2;74
61500;BME280;47361;49.996;19.918;2023-04-22T03:50:44;98665.88;;;4.3;74
61500;BME280;47361;49.996;19.918;2023-04-22T03:52:44;98665.52;;;4.4;74
61500;BME280;47361;49.996;19.918;2023-04-22T03:55:44;98668.0;;;4.5;73
61500;BME280;47361;49.996;19.918;2023-04-22T03:58:44;98670.59000000001;;;4.4;72
61500;BME280;47361;49.996;19.918;2023-04-22T04:01:44;98669.61;;;4.3;73
61500;BME280;47361;49.996;19.918;2023-04-22T04:02:44;98671.11;;;4.2;73
61500;BME280;47361;49.996;19.918;2023-04-22T04:10:44;98676.85;;;4.3;74
61500;BME280;47361;49.996;19.918;2023-04-22T04:13:44;98676.21;;;4.4;74
61500;BME280;47361;49.996;19.918;2023-04-22T04:15:44;98680.55;;;4.5;73
61500;BME280;47361;49.996;19.918;2023-04-22T04:16:44;98683.37;;;4.4;73
61500;BME280;47361;49.996;19.918;2023-04-22T04:25:44;98679.52;;;4.5;73
61500;BME280;47361;49.996;19.918;2023-04-22T04:30:44;98685.51999999999;;;4.6;74
61500;BME280;47361;49.996;19.918;2023-04-22T04:33:44;98683.42;;;4.5;74
61500;BME280;47361;49.996;19.918;2023-04-22T04:34:44;98682.12;;;4.6;74
61500;BME280;47361;49.996;19.918;2023-04-22T04:40:44;98685.28;;;4.7;74
61500;BME280;47361;49.996;19.918;2023-04-22T04:43:44;98690.98;;;4.8;74
61500;BME280;47361;49.996;19.918;2023-04-22T04:45:44;98690.37;;;4.9;74
61500;BME280;47361;49.996;19.918;2023-04-22T04:46:44;98688.39;;;5.0;74
61500;BME280;47361;49.996;19.918;2023-04-22T04:49:44;98689.94;;;5.1;74
61500;BME280;47361;49.996;19.918;2023-04-22T04:54:44;98686.77;;;5.2;73
61500;BME280;47361;49.996;19.918;2023-04-22T05:04:44;98689.26;;;5.3;73
61500;BME280;47361;49.996;19.918;2023-04-22T05:07:44;98687.25;;;5.4;73
61500;BME280;47361;49.996;19.918;2023-04-22T05:09:44;98688.81;;;5.5;73
61500;BME280;47361;49.996;19.918;2023-04-22T05:14:44;98685.02;;;5.6;73
61500;BME280;47361;49.996;19.918;2023-04-22T05:15:44;98686.41;;;5.7;73
61500;BME280;47361;49.996;19.918;2023-04-22T05:19:44;98688.2;;;5.8;73
61500;BME280;47361;49.996;19.918;2023-04-22T05:23:44;98689.43000000001;;;5.9;73
61500;BME280;47361;49.996;19.918;2023-04-22T05:25:44;98690.53;;;6.0;72
61500;BME280;47361;49.996;19.918;2023-04-22T05:27:44;98691.24;;;6.1;72
61500;BME280;47361;49.996;19.918;2023-04-22T05:29:44;98694.03;;;6.2;72
61500;BME280;47361;49.996;19.918;2023-04-22T05:31:44;98692.72;;;6.3;72
61500;BME280;47361;49.996;19.918;2023-04-22T05:33:44;98683.73;;;6.4;72
61500;BME280;47361;49.996;19.918;2023-04-22T05:35:44;98683.62;;;6.5;71
61500;BME280;47361;49.996;19.918;2023-04-22T05:36:44;98686.99;;;6.6;72
61500;BME280;47361;49.996;19.918;2023-04-22T05:37:44;98681.76;;;6.7;72
61500;BME280;47361;49.996;19.918;2023-04-22T05:39:44;98679.16;;;6.8;71
61500;BME280;47361;49.996;19.918;2023-04-22T05:41:44;98682.33;;;6.9;70
61500;BME280;47361;49.996;19.918;2023-04-22T05:43:44;98683.59;;;7.0;70
61500;BME280;47361;49.996;19.918;2023-04-22T05:44:44;98685.08;;;7.1;70
61500;BME280;47361;49.996;19.918;2023-04-22T05:46:45;98680.08;;;7.2;69
61500;BME280;47361;49.996;19.918;2023-04-22T05:48:44;98684.86;;;7.3;69
61500;BME280;47361;49.996;19.918;2023-04-22T05:49:44;98683.20999999999;;;7.4;69
61500;BME280;47361;49.996;19.918;2023-04-22T05:50:44;98683.72;;;7.5;68
61500;BME280;47361;49.996;19.918;2023-04-22T05:52:44;98685.44;;;7.6;68
61500;BME280;47361;49.996;19.918;2023-04-22T05:54:45;98683.51;;;7.7;68
61500;BME280;47361;49.996;19.918;2023-04-22T05:55:44;98683.0;;;7.8;67
61500;BME280;47361;49.996;19.918;2023-04-22T05:58:44;98681.78;;;7.9;67
61500;BME280;47361;49.996;19.918;2023-04-22T05:59:44;98683.42;;;8.0;66
61500;BME280;47361;49.996;19.918;2023-04-22T06:02:44;98685.53;;;8.1;67
61500;BME280;47361;49.996;19.918;2023-04-22T06:04:44;98682.86;;;8.2;66
61500;BME280;47361;49.996;19.918;2023-04-22T06:06:44;98684.64;;;8.3;66
61500;BME280;47361;49.996;19.918;2023-04-22T06:08:44;98687.15999999999;;;8.4;65
61500;BME280;47361;49.996;19.918;2023-04-22T06:09:44;98687.66;;;8.5;65
61500;BME280;47361;49.996;19.918;2023-04-22T06:10:44;98684.89;;;8.6;65
61500;BME280;47361;49.996;19.918;2023-04-22T06:12:44;98685.91;;;8.7;65
61500;BME280;47361;49.996;19.918;2023-04-22T06:13:44;98687.03;;;8.8;65
61500;BME280;47361;49.996;19.918;2023-04-22T06:14:44;98686.56;;;8.9;64
61500;BME280;47361;49.996;19.918;2023-04-22T06:17:44;98689.70000000001;;;9.0;64
61500;BME280;47361;49.996;19.918;2023-04-22T06:18:44;98689.89;;;9.1;64
61500;BME280;47361;49.996;19.918;2023-04-22T06:19:44;98688.36;;;9.2;64
61500;BME280;47361;49.996;19.918;2023-04-22T06:22:44;98685.18000000001;;;9.3;64
61500;BME280;47361;49.996;19.918;2023-04-22T06:24:44;98688.23;;;9.4;64
61500;BME280;47361;49.996;19.918;2023-04-22T06:25:44;98688.69;;;9.5;64
61500;BME280;47361;49.996;19.918;2023-04-22T06:27:44;98688.94;;;9.6;62
61500;BME280;47361;49.996;19.918;2023-04-22T06:29:44;98690.75;;;9.8;63
61500;BME280;47361;49.996;19.918;2023-04-22T06:31:44;98687.0;;;9.9;62
61500;BME280;47361;49.996;19.918;2023-04-22T06:33:44;98687.28;;;10.0;63
61500;BME280;47361;49.996;19.918;2023-04-22T06:34:44;98686.15999999999;;;10.1;62
61500;BME280;47361;49.996;19.918;2023-04-22T06:35:44;98684.77;;;10.2;62
61500;BME280;47361;49.996;19.918;2023-04-22T06:37:44;98686.89;;;10.3;62
61500;BME280;47361;49.996;19.918;2023-04-22T06:39:44;98679.26999999999;;;10.4;61
61500;BME280;47361;49.996;19.918;2023-04-22T06:40:45;98682.93;;;10.5;61
61500;BME280;47361;49.996;19.918;2023-04-22T06:42:44;98677.91;;;10.6;61
61500;BME280;47361;49.996;19.918;2023-04-22T06:44:44;98676.79000000001;;;10.8;60
61500;BME280;47361;49.996;19.918;2023-04-22T06:46:44;98678.05;;;10.9;59
61500;BME280;47361;49.996;19.918;2023-04-22T06:48:44;98678.89;;;11.0;59
61500;BME280;47361;49.996;19.918;2023-04-22T06:49:44;98675.76000000001;;;11.1;59
61500;BME280;47361;49.996;19.918;2023-04-22T06:52:45;98678.66;;;11.2;56
61500;BME280;47361;49.996;19.918;2023-04-22T06:54:44;98675.33;;;11.3;57
61500;BME280;47361;49.996;19.918;2023-04-22T06:55:44;98673.61;;;11.4;57
61500;BME280;47361;49.996;19.918;2023-04-22T06:58:44;98675.48000000001;;;11.5;55
61500;BME280;47361;49.996;19.918;2023-04-22T06:59:44;98672.70999999999;;;11.6;55
61500;BME280;47361;49.996;19.918;2023-04-22T07:02:44;98670.79;;;11.7;55
61500;BME280;47361;49.996;19.918;2023-04-22T07:04:44;98671.92;;;11.8;55
61500;BME280;47361;49.996;19.918;2023-04-22T07:06:44;98670.75;;;11.9;56
61500;BME280;47361;49.996;19.918;2023-04-22T07:08:44;98669.7;;;12.0;56
61500;BME280;47361;49.996;19.918;2023-04-22T07:09:44;98672.43999999999;;;12.1;56
61500;BME280;47361;49.996;19.918;2023-04-22T07:10:44;98673.68000000001;;;12.2;55
61500;BME280;47361;49.996;19.918;2023-04-22T07:12:44;98668.93;;;12.3;53
61500;BME280;47361;49.996;19.918;2023-04-22T07:14:45;98670.25;;;12.4;52
61500;BME280;47361;49.996;19.918;2023-04-22T07:15:45;98673.24;;;12.5;53
61500;BME280;47361;49.996;19.918;2023-04-22T07:16:45;98667.53;;;12.6;52
61500;BME280;47361;49.996;19.918;2023-04-22T07:19:44;98667.38;;;12.7;51
61500;BME280;47361;49.996;19.918;2023-04-22T07:21:44;98666.86;;;12.8;51
61500;BME280;47361;49.996;19.918;2023-04-22T07:24:44;98667.7;;;12.9;52
61500;BME280;47361;49.996;19.918;2023-04-22T07:25:44;98668.67;;;13.0;52
61500;BME280;47361;49.996;19.918;2023-04-22T07:26:45;98668.05;;;13.1;52
61500;BME280;47361;49.996;19.918;2023-04-22T07:28:44;98664.73;;;13.2;51
61500;BME280;47361;49.996;19.918;2023-04-22T07:29:44;98663.75;;;13.3;51
61500;BME280;47361;49.996;19.918;2023-04-22T07:32:44;98666.16;;;13.4;49
61500;BME280;47361;49.996;19.918;2023-04-22T07:34:44;98668.75;;;13.5;49
61500;BME280;47361;49.996;19.918;2023-04-22T07:38:45;98666.45999999999;;;13.6;50
61500;BME280;47361;49.996;19.918;2023-04-22T07:39:44;98665.28;;;13.7;50
61500;BME280;47361;49.996;19.918;2023-04-22T07:40:44;98668.25;;;13.8;49
61500;BME280;47361;49.996;19.918;2023-04-22T07:42:45;98660.62;;;13.9;47
61500;BME280;47361;49.996;19.918;2023-04-22T07:44:44;98664.07;;;14.0;48
61500;BME280;47361;49.996;19.918;2023-04-22T07:47:44;98662.05;;;14.1;45
61500;BME280;47361;49.996;19.918;2023-04-22T07:49:45;98664.31999999999;;;14.2;45
61500;BME280;47361;49.996;19.918;2023-04-22T07:52:44;98663.33;;;14.3;47
61500;BME280;47361;49.996;19.918;2023-04-22T07:53:44;98661.87999999999;;;14.4;47
61500;BME280;47361;49.996;19.918;2023-04-22T07:55:44;98656.38;;;14.5;44
61500;BME280;47361;49.996;19.918;2023-04-22T07:57:44;98656.76999999999;;;14.6;44
61500;BME280;47361;49.996;19.918;2023-04-22T07:59:44;98658.94;;;14.7;45
61500;BME280;47361;49.996;19.918;2023-04-22T08:02:45;98655.58;;;14.8;45
61500;BME280;47361;49.996;19.918;2023-04-22T08:04:44;98654.83;;;14.9;45
61500;BME280;47361;49.996;19.918;2023-04-22T08:05:44;98655.88;;;15.0;45
61500;BME280;47361;49.996;19.918;2023-04-22T08:07:44;98655.42;;;15.1;44
61500;BME280;47361;49.996;19.918;2023-04-22T08:08:44;98656.83;;;15.2;44
61500;BME280;47361;49.996;19.918;2023-04-22T08:09:44;98650.86;;;15.3;44
61500;BME280;47361;49.996;19.918;2023-04-22T08:11:44;98650.28;;;15.4;44
61500;BME280;47361;49.996;19.918;2023-04-22T08:13:45;98653.08;;;15.5;44
61500;BME280;47361;49.996;19.918;2023-04-22T08:14:44;98650.76000000001;;;15.6;44
61500;BME280;47361;49.996;19.918;2023-04-22T08:17:44;98652.8;;;15.7;42
61500;BME280;47361;49.996;19.918;2023-04-22T08:19:44;98653.12;;;15.8;42
61500;BME280;47361;49.996;19.918;2023-04-22T08:22:44;98650.69;;;15.9;41
61500;BME280;47361;49.996;19.918;2023-04-22T08:24:45;98649.34;;;16.0;42
61500;BME280;47361;49.996;19.918;2023-04-22T08:28:44;98653.27;;;16.1;41
61500;BME280;47361;49.996;19.918;2023-04-22T08:30:45;98651.29;;;16.2;41
61500;BME280;47361;49.996;19.918;2023-04-22T08:34:45;98652.48;;;16.3;40
61500;BME280;47361;49.996;19.918;2023-04-22T08:36:45;98646.64;;;16.4;42
61500;BME280;47361;49.996;19.918;2023-04-22T08:38:44;98655.12999999999;;;16.5;41
61500;BME280;47361;49.996;19.918;2023-04-22T08:39:44;98650.0;;;16.6;41
61500;BME280;47361;49.996;19.918;2023-04-22T08:43:45;98648.71;;;16.7;39
61500;BME280;47361;49.996;19.918;2023-04-22T08:44:44;98652.04;;;16.8;38
61500;BME280;47361;49.996;19.918;2023-04-22T08:48:45;98647.5;;;16.9;38
61500;BME280;47361;49.996;19.918;2023-04-22T08:53:45;98647.91;;;17.0;38
61500;BME280;47361;49.996;19.918;2023-04-22T08:56:44;98646.44;;;17.1;37
61500;BME280;47361;49.996;19.918;2023-04-22T08:59:45;98643.12999999999;;;17.2;37
61500;BME280;47361;49.996;19.918;2023-04-22T09:04:45;98640.41;;;17.3;36
61500;BME280;47361;49.996;19.918;2023-04-22T09:05:44;98641.09;;;17.4;36
61500;BME280;47361;49.996;19.918;2023-04-22T09:08:45;98641.53;;;17.5;37
61500;BME280;47361;49.996;19.918;2023-04-22T09:13:45;98642.14;;;17.6;35
61500;BME280;47361;49.996;19.918;2023-04-22T09:19:44;98634.33;;;17.7;35
61500;BME280;47361;49.996;19.918;2023-04-22T09:21:44;98639.06;;;17.8;35
61500;BME280;47361;49.996;19.918;2023-04-22T09:23:45;98637.64;;;17.9;34
61500;BME280;47361;49.996;19.918;2023-04-22T09:27:47;98632.17;;;17.8;33
61500;BME280;47361;49.996;19.918;2023-04-22T09:28:48;98625.66;;;17.9;33
61500;BME280;47361;49.996;19.918;2023-04-22T09:39:46;98621.41;;;18.0;33
61500;BME280;47361;49.996;19.918;2023-04-22T09:43:45;98612.8;;;18.1;33
61500;BME280;47361;49.996;19.918;2023-04-22T09:47:45;98612.27;;;18.2;34
61500;BME280;47361;49.996;19.918;2023-04-22T09:48:45;98612.14;;;18.3;34
61500;BME280;47361;49.996;19.918;2023-04-22T09:49:45;98610.17;;;18.4;34
61500;BME280;47361;49.996;19.918;2023-04-22T09:52:46;98599.18000000001;;;18.5;34
61500;BME280;47361;49.996;19.918;2023-04-22T09:54:47;98597.70999999999;;;18.6;35
61500;BME280;47361;49.996;19.918;2023-04-22T09:58:45;98592.25;;;18.7;32
61500;BME280;47361;49.996;19.918;2023-04-22T10:01:45;98596.56;;;18.8;34
61500;BME280;47361;49.996;19.918;2023-04-22T10:03:45;98597.72;;;18.9;33
61500;BME280;47361;49.996;19.918;2023-04-22T10:08:45;98598.01999999999;;;19.0;34
61500;BME280;47361;49.996;19.918;2023-04-22T10:09:45;98596.08;;;19.1;34
61500;BME280;47361;49.996;19.918;2023-04-22T10:13:45;98593.06;;;19.2;32
61500;BME280;47361;49.996;19.918;2023-04-22T10:15:47;98591.72;;;19.3;31
61500;BME280;47361;49.996;19.918;2023-04-22T10:17:45;98589.01;;;19.2;31
61500;BME280;47361;49.996;19.918;2023-04-22T10:18:45;98587.07;;;19.3;32
61500;BME280;47361;49.996;19.918;2023-04-22T10:19:45;98586.08;;;19.4;31
61500;BME280;47361;49.996;19.918;2023-04-22T10:29:45;98585.74;;;19.5;32
61500;BME280;47361;49.996;19.918;2023-04-22T10:31:50;98576.17;;;19.4;30
61500;BME280;47361;49.996;19.918;2023-04-22T10:33:45;98578.91;;;19.5;31
61500;BME280;47361;49.996;19.918;2023-04-22T10:37:45;98579.24;;;19.4;31
61500;BME280;47361;49.996;19.918;2023-04-22T10:43:45;98594.56999999999;;;19.6;31
61500;BME280;47361;49.996;19.918;2023-04-22T10:45:45;98592.83;;;19.5;30
61500;BME280;47361;49.996;19.918;2023-04-22T10:48:46;98593.05;;;19.6;30
61500;BME280;47361;49.996;19.918;2023-04-22T10:53:45;98586.03;;;19.7;31
61500;BME280;47361;49.996;19.918;2023-04-22T10:58:45;98587.87;;;20.0;31
61500;BME280;47361;49.996;19.918;2023-04-22T11:00:45;98581.42;;;20.1;31
61500;BME280;47361;49.996;19.918;2023-04-22T11:02:45;98582.23000000001;;;20.2;30
61500;BME280;47361;49.996;19.918;2023-04-22T11:07:45;98585.46;;;20.1;29
61500;BME280;47361;49.996;19.918;2023-04-22T11:08:45;98582.59000000001;;;20.2;27
61500;BME280;47361;49.996;19.918;2023-04-22T11:11:45;98579.54999999999;;;20.1;28
61500;BME280;47361;49.996;19.918;2023-04-22T11:14:45;98575.41;;;20.2;30
61500;BME280;47361;49.996;19.918;2023-04-22T11:15:46;98576.68;;;20.1;28
61500;BME280;47361;49.996;19.918;2023-04-22T11:17:45;98576.42;;;20.2;29
61500;BME280;47361;49.996;19.918;2023-04-22T11:19:45;98572.24;;;20.3;29
61500;BME280;47361;49.996;19.918;2023-04-22T11:22:45;98567.55;;;20.4;28
61500;BME280;47361;49.996;19.918;2023-04-22T11:28:45;98560.56999999999;;;20.5;29
61500;BME280;47361;49.996;19.918;2023-04-22T11:32:45;98551.36;;;20.7;30
61500;BME280;47361;49.996;19.918;2023-04-22T11:33:45;98550.72;;;20.8;28
61500;BME280;47361;49.996;19.918;2023-04-22T11:38:52;98551.84000000001;;;20.9;27
61500;BME280;47361;49.996;19.918;2023-04-22T11:39:45;98548.65999999999;;;20.8;26
61500;BME280;47361;49.996;19.918;2023-04-22T11:40:45;98544.08;;;20.7;25
61500;BME280;47361;49.996;19.918;2023-04-22T11:43:45;98542.35;;;20.8;27
61500;BME280;47361;49.996;19.918;2023-04-22T11:48:45;98542.1;;;20.9;28
61500;BME280;47361;49.996;19.918;2023-04-22T11:49:53;98544.1;;;21.0;28
61500;BME280;47361;49.996;19.918;2023-04-22T11:53:49;98539.42;;;21.1;27
61500;BME280;47361;49.996;19.918;2023-04-22T11:58:46;98531.73000000001;;;21.2;27
61500;BME280;47361;49.996;19.918;2023-04-22T12:02:53;98528.54999999999;;;21.3;27
61500;BME280;47361;49.996;19.918;2023-04-22T12:08:45;98528.49;;;21.4;26
61500;BME280;47361;49.996;19.918;2023-04-22T12:11:45;98523.24;;;21.3;26
61500;BME280;47361;49.996;19.918;2023-04-22T12:13:45;98524.95;;;21.4;26
61500;BME280;47361;49.996;19.918;2023-04-22T12:17:45;98525.69;;;21.3;25
61500;BME280;47361;49.996;19.918;2023-04-22T12:18:47;98526.9;;;21.4;25
61500;BME280;47361;49.996;19.918;2023-04-22T12:21:46;98523.22;;;21.5;27
61500;BME280;47361;49.996;19.918;2023-04-22T12:23:45;98521.46;;;21.6;28
61500;BME280;47361;49.996;19.918;2023-04-22T12:24:45;98516.85;;;21.7;28
61500;BME280;47361;49.996;19.918;2023-04-22T12:26:45;98515.05;;;21.8;27
61500;BME280;47361;49.996;19.918;2023-04-22T12:28:45;98519.26;;;21.9;24
61500;BME280;47361;49.996;19.918;2023-04-22T12:38:45;98508.33;;;22.0;25
61500;BME280;47361;49.996;19.918;2023-04-22T12:43:45;98500.67;;;22.1;25
61500;BME280;47361;49.996;19.918;2023-04-22T12:45:45;98501.72;;;22.2;28
61500;BME280;47361;49.996;19.918;2023-04-22T12:48:45;98498.33;;;22.4;27
61500;BME280;47361;49.996;19.918;2023-04-22T12:51:45;98498.28;;;22.5;29
61500;BME280;47361;49.996;19.918;2023-04-22T12:54:45;98492.55;;;22.4;26
61500;BME280;47361;49.996;19.918;2023-04-22T12:58:45;98492.97;;;22.5;26
61500;BME280;47361;49.996;19.918;2023-04-22T13:00:45;98489.59;;;22.6;27
61500;BME280;47361;49.996;19.918;2023-04-22T13:06:45;98484.6;;;22.5;24
61500;BME280;47361;49.996;19.918;2023-04-22T13:08:45;98487.58;;;22.6;24
61500;BME280;47361;49.996;19.918;2023-04-22T13:09:45;98481.62;;;22.5;23
61500;BME280;47361;49.996;19.918;2023-04-22T13:11:45;98480.14;;;22.6;25
61500;BME280;47361;49.996;19.918;2023-04-22T13:13:45;98472.11;;;22.7;24
61500;BME280;47361;49.996;19.918;2023-04-22T13:17:45;98475.73;;;22.8;25
61500;BME280;47361;49.996;19.918;2023-04-22T13:18:45;98472.79999999999;;;22.9;24
61500;BME280;47361;49.996;19.918;2023-04-22T13:23:45;98462.61;;;23.0;25
61500;BME280;47361;49.996;19.918;2023-04-22T13:26:45;98459.26;;;23.1;27
61500;BME280;47361;49.996;19.918;2023-04-22T13:30:45;98465.18;;;23.2;26
61500;BME280;47361;49.996;19.918;2023-04-22T13:33:45;98466.76999999999;;;23.3;26
61500;BME280;47361;49.996;19.918;2023-04-22T13:38:45;98462.89;;;23.4;26
61500;BME280;47361;49.996;19.918;2023-04-22T13:43:45;98463.26000000001;;;23.5;23
61500;BME280;47361;49.996;19.918;2023-04-22T13:44:45;98463.92;;;23.4;23
61500;BME280;47361;49.996;19.918;2023-04-22T13:48:45;98465.7;;;23.5;24
61500;BME280;47361;49.996;19.918;2023-04-22T13:49:45;98464.51;;;23.6;25
61500;BME280;47361;49.996;19.918;2023-04-22T13:51:45;98462.97;;;23.7;26
61500;BME280;47361;49.996;19.918;2023-04-22T13:53:45;98461.11;;;23.8;25
61500;BME280;47361;49.996;19.918;2023-04-22T13:57:45;98458.58;;;23.9;25
61500;BME280;47361;49.996;19.918;2023-04-22T13:58:45;98459.07999999999;;;24.0;24
61500;BME280;47361;49.996;19.918;2023-04-22T14:04:45;98452.98;;;24.1;26
61500;BME280;47361;49.996;19.918;2023-04-22T14:09:45;98453.85;;;24.0;22
61500;BME280;47361;49.996;19.918;2023-04-22T14:12:45;98454.19;;;23.9;25
61500;BME280;47361;49.996;19.918;2023-04-22T14:13:45;98450.71;;;24.0;23
61500;BME280;47361;49.996;19.918;2023-04-22T14:15:45;98445.98;;;23.9;24
61500;BME280;47361;49.996;19.918;2023-04-22T14:17:45;98446.43;;;24.0;26
61500;BME280;47361;49.996;19.918;2023-04-22T14:19:45;98448.0;;;24.1;25
61500;BME280;47361;49.996;19.918;2023-04-22T14:23:45;98442.83;;;24.2;25
61500;BME280;47361;49.996;19.918;2023-04-22T14:24:45;98445.89;;;24.3;25
61500;BME280;47361;49.996;19.918;2023-04-22T14:25:45;98443.07;;;24.4;25
61500;BME280;47361;49.996;19.918;2023-04-22T14:26:45;98444.67;;;24.5;23